sensor_id;sensor_type;location;lat;lon;timestamp;pressure;altitude;pressure_sealevel;temperature
76007;BMP280;64699;0.000;0.000;2023-04-08T00:00:59;101103.84;;;18.18
76007;BMP280;64699;0.000;0.000;2023-04-08T00:03:24;101110.09;;;18.19
76007;BMP280;64699;0.000;0.000;2023-04-08T00:05:50;101112.59;;;18.17
76007;BMP280;64699;0.000;0.000;2023-04-08T00:08:15;101105.88;;;18.18
76007;BMP280;64699;0.000;0.000;2023-04-08T00:10:41;101114.09;;;18.18
76007;BMP280;64699;0.000;0.000;2023-04-08T00:13:06;101114.09;;;18.18
76007;BMP280;64699;0.000;0.000;2023-04-08T00:15:31;101112.59;;;18.17
76007;BMP280;64699;0.000;0.000;2023-04-08T00:17:56;101120.84;;;18.17
76007;BMP280;64699;0.000;0.000;2023-04-08T00:20:22;101111.88;;;18.16
76007;BMP280;64699;0.000;0.000;2023-04-08T00:22:47;101115.34;;;18.17
76007;BMP280;64699;0.000;0.000;2023-04-08T00:25:13;101111.13;;;18.16
76007;BMP280;64699;0.000;0.000;2023-04-08T00:27:38;101114.63;;;18.16
76007;BMP280;64699;0.000;0.000;2023-04-08T00:30:03;101112.38;;;18.15
76007;BMP280;64699;0.000;0.000;2023-04-08T00:32:29;101109.63;;;18.15
76007;BMP280;64699;0.000;0.000;2023-04-08T00:34:55;101110.88;;;18.14
76007;BMP280;64699;0.000;0.000;2023-04-08T00:37:20;101115.13;;;18.15
76007;BMP280;64699;0.000;0.000;2023-04-08T00:39:47;101119.13;;;18.14
76007;BMP280;64699;0.000;0.000;2023-04-08T00:42:12;101112.13;;;18.13
76007;BMP280;64699;0.000;0.000;2023-04-08T00:44:37;101119.13;;;18.14
76007;BMP280;64699;0.000;0.000;2023-04-08T00:47:03;101113.63;;;18.14
76007;BMP280;64699;0.000;0.000;2023-04-08T00:49:29;101121.16;;;18.13
76007;BMP280;64699;0.000;0.000;2023-04-08T00:51:55;101125.88;;;18.13
76007;BMP280;64699;0.000;0.000;2023-04-08T00:54:20;101123.13;;;18.13
76007;BMP280;64699;0.000;0.000;2023-04-08T00:56:45;101134.13;;;18.13
76007;BMP280;64699;0.000;0.000;2023-04-08T00:59:11;101132.66;;;18.12
76007;BMP280;64699;0.000;0.000;2023-04-08T01:06:50;101131.16;;;18.11
76007;BMP280;64699;0.000;0.000;2023-04-08T01:09:18;101130.41;;;18.10
76007;BMP280;64699;0.000;0.000;2023-04-08T01:11:45;101135.16;;;18.10
76007;BMP280;64699;0.000;0.000;2023-04-08T01:14:14;101129.69;;;18.10
76007;BMP280;64699;0.000;0.000;2023-04-08T01:16:41;101138.41;;;18.08
76007;BMP280;64699;0.000;0.000;2023-04-08T01:19:08;101139.16;;;18.09
76007;BMP280;64699;0.000;0.000;2023-04-08T01:21:35;101123.91;;;18.08
76007;BMP280;64699;0.000;0.000;2023-04-08T01:26:29;101139.16;;;18.09
76007;BMP280;64699;0.000;0.000;2023-04-08T01:28:58;101140.94;;;18.06
76007;BMP280;64699;0.000;0.000;2023-04-08T01:31:24;101136.19;;;18.07
76007;BMP280;64699;0.000;0.000;2023-04-08T01:33:50;101127.94;;;18.07
76007;BMP280;64699;0.000;0.000;2023-04-08T01:36:16;101136.19;;;18.07
76007;BMP280;64699;0.000;0.000;2023-04-08T01:38:41;101140.94;;;18.06
76007;BMP280;64699;0.000;0.000;2023-04-08T01:41:07;101139.44;;;18.05
76007;BMP280;64699;0.000;0.000;2023-04-08T01:43:33;101144.44;;;18.07
76007;BMP280;64699;0.000;0.000;2023-04-08T01:45:59;101146.44;;;18.06
76007;BMP280;64699;0.000;0.000;2023-04-08T01:48:25;101151.19;;;18.06
76007;BMP280;64699;0.000;0.000;2023-04-08T01:50:51;101145.69;;;18.06
76007;BMP280;64699;0.000;0.000;2023-04-08T01:53:16;101160.69;;;18.05
76007;BMP280;64699;0.000;0.000;2023-04-08T01:55:42;101166.19;;;18.05
76007;BMP280;64699;0.000;0.000;2023-04-08T01:58:08;101159.19;;;18.04
76007;BMP280;64699;0.000;0.000;2023-04-08T02:00:35;101162.69;;;18.04
76007;BMP280;64699;0.000;0.000;2023-04-08T02:03:01;101163.44;;;18.05
76007;BMP280;64699;0.000;0.000;2023-04-08T02:05:28;101169.44;;;18.03
76007;BMP280;64699;0.000;0.000;2023-04-08T02:07:54;101166.69;;;18.03
76007;BMP280;64699;0.000;0.000;2023-04-08T02:10:19;101166.69;;;18.03
76007;BMP280;64699;0.000;0.000;2023-04-08T02:12:44;101173.47;;;18.02
76007;BMP280;64699;0.000;0.000;2023-04-08T02:15:10;101178.22;;;18.02
76007;BMP280;64699;0.000;0.000;2023-04-08T02:17:40;101175.47;;;18.02
76007;BMP280;64699;0.000;0.000;2023-04-08T02:20:13;101178.72;;;18.00
76007;BMP280;64699;0.000;0.000;2023-04-08T02:25:10;101175.97;;;18.00
76007;BMP280;64699;0.000;0.000;2023-04-08T02:27:37;101175.19;;;18.00
76007;BMP280;64699;0.000;0.000;2023-04-08T02:30:03;101175.19;;;18.00
76007;BMP280;64699;0.000;0.000;2023-04-08T02:32:30;101181.94;;;17.99
76007;BMP280;64699;0.000;0.000;2023-04-08T02:34:56;101186.97;;;18.00
76007;BMP280;64699;0.000;0.000;2023-04-08T02:37:23;101187.44;;;17.99
76007;BMP280;64699;0.000;0.000;2023-04-08T02:39:48;101184.69;;;17.99
76007;BMP280;64699;0.000;0.000;2023-04-08T02:42:14;101194.97;;;17.98
76007;BMP280;64699;0.000;0.000;2023-04-08T02:44:39;101194.22;;;17.98
76007;BMP280;64699;0.000;0.000;2023-04-08T02:47:05;101193.47;;;17.97
76007;BMP280;64699;0.000;0.000;2023-04-08T02:49:30;101194.22;;;17.98
76007;BMP280;64699;0.000;0.000;2023-04-08T02:51:55;101203.72;;;17.97
76007;BMP280;64699;0.000;0.000;2023-04-08T02:54:20;101206.47;;;17.97
76007;BMP280;64699;0.000;0.000;2023-04-08T02:56:45;101208.97;;;17.95
76007;BMP280;64699;0.000;0.000;2023-04-08T02:59:11;101211.97;;;17.97
76007;BMP280;64699;0.000;0.000;2023-04-08T03:01:36;101209.22;;;17.97
76007;BMP280;64699;0.000;0.000;2023-04-08T03:04:01;101212.47;;;17.95
76007;BMP280;64699;0.000;0.000;2023-04-08T03:06:26;101217.22;;;17.95
76007;BMP280;64699;0.000;0.000;2023-04-08T03:08:51;101210.97;;;17.94
76007;BMP280;64699;0.000;0.000;2023-04-08T03:11:17;101210.97;;;17.94
76007;BMP280;64699;0.000;0.000;2023-04-08T03:13:42;101215.72;;;17.94
76007;BMP280;64699;0.000;0.000;2023-04-08T03:16:07;101219.72;;;17.93
76007;BMP280;64699;0.000;0.000;2023-04-08T03:18:32;101216.97;;;17.93
76007;BMP280;64699;0.000;0.000;2023-04-08T03:20:57;101218.25;;;17.92
76007;BMP280;64699;0.000;0.000;2023-04-08T03:23:23;101219.72;;;17.93
76007;BMP280;64699;0.000;0.000;2023-04-08T03:25:48;101216.75;;;17.91
76007;BMP280;64699;0.000;0.000;2023-04-08T03:28:13;101216.75;;;17.91
76007;BMP280;64699;0.000;0.000;2023-04-08T03:30:38;101222.25;;;17.91
76007;BMP280;64699;0.000;0.000;2023-04-08T03:33:03;101224.25;;;17.90
76007;BMP280;64699;0.000;0.000;2023-04-08T03:35:31;101219.25;;;17.89
76007;BMP280;64699;0.000;0.000;2023-04-08T03:37:57;101222.72;;;17.89
76007;BMP280;64699;0.000;0.000;2023-04-08T03:40:22;101227.72;;;17.91
76007;BMP280;64699;0.000;0.000;2023-04-08T03:42:47;101226.22;;;17.90
76007;BMP280;64699;0.000;0.000;2023-04-08T03:45:12;101229.50;;;17.88
76007;BMP280;64699;0.000;0.000;2023-04-08T03:47:38;101231.50;;;17.88
76007;BMP280;64699;0.000;0.000;2023-04-08T03:50:03;101234.25;;;17.88
76007;BMP280;64699;0.000;0.000;2023-04-08T03:52:28;101239.75;;;17.88
76007;BMP280;64699;0.000;0.000;2023-04-08T03:54:53;101243.25;;;17.88
76007;BMP280;64699;0.000;0.000;2023-04-08T03:57:18;101249.25;;;17.87
76007;BMP280;64699;0.000;0.000;2023-04-08T03:59:44;101237.00;;;17.88
76007;BMP280;64699;0.000;0.000;2023-04-08T04:02:09;101249.25;;;17.87
76007;BMP280;64699;0.000;0.000;2023-04-08T04:04:35;101245.25;;;17.88
76007;BMP280;64699;0.000;0.000;2023-04-08T04:07:01;101259.50;;;17.86
76007;BMP280;64699;0.000;0.000;2023-04-08T04:09:26;101256.75;;;17.86
76007;BMP280;64699;0.000;0.000;2023-04-08T04:11:51;101261.50;;;17.86
76007;BMP280;64699;0.000;0.000;2023-04-08T04:14:16;101262.72;;;17.85
76007;BMP280;64699;0.000;0.000;2023-04-08T04:16:41;101268.22;;;17.85
76007;BMP280;64699;0.000;0.000;2023-04-08T04:19:07;101270.97;;;17.85
76007;BMP280;64699;0.000;0.000;2023-04-08T04:21:32;101272.25;;;17.84
76007;BMP280;64699;0.000;0.000;2023-04-08T04:23:57;101273.72;;;17.85
76007;BMP280;64699;0.000;0.000;2023-04-08T04:26:22;101277.03;;;17.83
76007;BMP280;64699;0.000;0.000;2023-04-08T04:28:47;101274.28;;;17.83
76007;BMP280;64699;0.000;0.000;2023-04-08T04:31:19;101277.75;;;17.84
76007;BMP280;64699;0.000;0.000;2023-04-08T04:33:50;101282.50;;;17.83
76007;BMP280;64699;0.000;0.000;2023-04-08T04:36:15;101280.25;;;17.82
76007;BMP280;64699;0.000;0.000;2023-04-08T04:38:40;101281.00;;;17.82
76007;BMP280;64699;0.000;0.000;2023-04-08T04:41:07;101290.47;;;17.81
76007;BMP280;64699;0.000;0.000;2023-04-08T04:43:32;101290.00;;;17.83
76007;BMP280;64699;0.000;0.000;2023-04-08T04:45:57;101297.50;;;17.82
76007;BMP280;64699;0.000;0.000;2023-04-08T04:48:23;101280.00;;;17.80
76007;BMP280;64699;0.000;0.000;2023-04-08T04:50:58;101291.72;;;17.80
76007;BMP280;64699;0.000;0.000;2023-04-08T04:53:24;101291.72;;;17.80
76007;BMP280;64699;0.000;0.000;2023-04-08T04:55:49;101296.75;;;17.82
76007;BMP280;64699;0.000;0.000;2023-04-08T04:58:14;101291.72;;;17.80
76007;BMP280;64699;0.000;0.000;2023-04-08T05:00:40;101292.97;;;17.79
76007;BMP280;64699;0.000;0.000;2023-04-08T05:03:05;101297.78;;;17.79
76007;BMP280;64699;0.000;0.000;2023-04-08T05:05:30;101306.03;;;17.79
76007;BMP280;64699;0.000;0.000;2023-04-08T05:07:56;101301.75;;;17.78
76007;BMP280;64699;0.000;0.000;2023-04-08T05:10:21;101301.75;;;17.78
76007;BMP280;64699;0.000;0.000;2023-04-08T05:12:46;101295.03;;;17.79
76007;BMP280;64699;0.000;0.000;2023-04-08T05:15:11;101307.25;;;17.78
76007;BMP280;64699;0.000;0.000;2023-04-08T05:17:36;101307.25;;;17.78
76007;BMP280;64699;0.000;0.000;2023-04-08T05:20:02;101305.25;;;17.78
76007;BMP280;64699;0.000;0.000;2023-04-08T05:22:27;101306.50;;;17.77
76007;BMP280;64699;0.000;0.000;2023-04-08T05:24:52;101308.50;;;17.77
76007;BMP280;64699;0.000;0.000;2023-04-08T05:27:17;101309.72;;;17.76
76007;BMP280;64699;0.000;0.000;2023-04-08T05:29:42;101311.25;;;17.77
76007;BMP280;64699;0.000;0.000;2023-04-08T05:32:08;101308.22;;;17.75
76007;BMP280;64699;0.000;0.000;2023-04-08T05:34:33;101304.25;;;17.76
76007;BMP280;64699;0.000;0.000;2023-04-08T05:36:58;101316.00;;;17.76
76007;BMP280;64699;0.000;0.000;2023-04-08T05:39:23;101315.22;;;17.76
76007;BMP280;64699;0.000;0.000;2023-04-08T05:41:49;101320.00;;;17.75
76007;BMP280;64699;0.000;0.000;2023-04-08T05:44:14;101321.97;;;17.75
76007;BMP280;64699;0.000;0.000;2023-04-08T05:46:39;101323.25;;;17.74
76007;BMP280;64699;0.000;0.000;2023-04-08T05:49:05;101317.75;;;17.74
76007;BMP280;64699;0.000;0.000;2023-04-08T05:51:30;101319.22;;;17.75
76007;BMP280;64699;0.000;0.000;2023-04-08T05:53:55;101324.03;;;17.74
76007;BMP280;64699;0.000;0.000;2023-04-08T05:56:20;101339.75;;;17.74
76007;BMP280;64699;0.000;0.000;2023-04-08T05:58:46;101327.25;;;17.73
76007;BMP280;64699;0.000;0.000;2023-04-08T06:01:11;101328.00;;;17.73
76007;BMP280;64699;0.000;0.000;2023-04-08T06:03:36;101327.25;;;17.73
76007;BMP280;64699;0.000;0.000;2023-04-08T06:06:01;101324.03;;;17.74
76007;BMP280;64699;0.000;0.000;2023-04-08T06:08:27;101329.25;;;17.72
76007;BMP280;64699;0.000;0.000;2023-04-08T06:10:52;101330.00;;;17.73
76007;BMP280;64699;0.000;0.000;2023-04-08T06:13:17;101333.50;;;17.73
76007;BMP280;64699;0.000;0.000;2023-04-08T06:15:44;101337.50;;;17.72
76007;BMP280;64699;0.000;0.000;2023-04-08T06:18:09;101334.00;;;17.72
76007;BMP280;64699;0.000;0.000;2023-04-08T06:20:35;101331.25;;;17.72
76007;BMP280;64699;0.000;0.000;2023-04-08T06:23:00;101335.25;;;17.71
76007;BMP280;64699;0.000;0.000;2023-04-08T06:25:25;101332.75;;;17.73
76007;BMP280;64699;0.000;0.000;2023-04-08T06:27:51;101335.97;;;17.71
76007;BMP280;64699;0.000;0.000;2023-04-08T06:30:16;101340.75;;;17.71
76007;BMP280;64699;0.000;0.000;2023-04-08T06:32:41;101345.47;;;17.70
76007;BMP280;64699;0.000;0.000;2023-04-08T06:35:06;101338.72;;;17.71
76007;BMP280;64699;0.000;0.000;2023-04-08T06:37:32;101342.25;;;17.72
76007;BMP280;64699;0.000;0.000;2023-04-08T06:39:58;101342.97;;;17.72
76007;BMP280;64699;0.000;0.000;2023-04-08T06:42:23;101351.75;;;17.71
76007;BMP280;64699;0.000;0.000;2023-04-08T06:44:48;101342.00;;;17.70
76007;BMP280;64699;0.000;0.000;2023-04-08T06:47:13;101353.00;;;17.70
76007;BMP280;64699;0.000;0.000;2023-04-08T06:49:40;101349.50;;;17.69
76007;BMP280;64699;0.000;0.000;2023-04-08T06:52:05;101346.00;;;17.69
76007;BMP280;64699;0.000;0.000;2023-04-08T06:54:30;101348.75;;;17.69
76007;BMP280;64699;0.000;0.000;2023-04-08T06:56:56;101344.50;;;17.68
76007;BMP280;64699;0.000;0.000;2023-04-08T06:59:22;101345.25;;;17.68
76007;BMP280;64699;0.000;0.000;2023-04-08T07:01:47;101350.00;;;17.68
76007;BMP280;64699;0.000;0.000;2023-04-08T07:04:12;101343.75;;;17.67
76007;BMP280;64699;0.000;0.000;2023-04-08T07:06:37;101345.75;;;17.67
76007;BMP280;64699;0.000;0.000;2023-04-08T07:09:03;101345.75;;;17.67
76007;BMP280;64699;0.000;0.000;2023-04-08T07:11:28;101344.22;;;17.66
76007;BMP280;64699;0.000;0.000;2023-04-08T07:13:54;101346.22;;;17.65
76007;BMP280;64699;0.000;0.000;2023-04-08T07:16:19;101345.75;;;17.67
76007;BMP280;64699;0.000;0.000;2023-04-08T07:18:45;101362.22;;;17.67
76007;BMP280;64699;0.000;0.000;2023-04-08T07:21:11;101354.47;;;17.65
76007;BMP280;64699;0.000;0.000;2023-04-08T07:23:36;101359.25;;;17.65
76007;BMP280;64699;0.000;0.000;2023-04-08T07:26:02;101359.25;;;17.65
76007;BMP280;64699;0.000;0.000;2023-04-08T07:28:28;101362.00;;;17.65
76007;BMP280;64699;0.000;0.000;2023-04-08T07:30:53;101355.22;;;17.66
76007;BMP280;64699;0.000;0.000;2023-04-08T07:33:18;101369.47;;;17.64
76007;BMP280;64699;0.000;0.000;2023-04-08T07:35:43;101366.00;;;17.64
76007;BMP280;64699;0.000;0.000;2023-04-08T07:38:09;101369.47;;;17.64
76007;BMP280;64699;0.000;0.000;2023-04-08T07:40:35;101367.25;;;17.63
76007;BMP280;64699;0.000;0.000;2023-04-08T07:43:00;101366.00;;;17.64
76007;BMP280;64699;0.000;0.000;2023-04-08T07:45:25;101367.25;;;17.63
76007;BMP280;64699;0.000;0.000;2023-04-08T07:47:51;101364.50;;;17.63
76007;BMP280;64699;0.000;0.000;2023-04-08T07:50:16;101364.50;;;17.63
76007;BMP280;64699;0.000;0.000;2023-04-08T07:52:41;101367.97;;;17.63
76007;BMP280;64699;0.000;0.000;2023-04-08T07:55:07;101367.25;;;17.63
76007;BMP280;64699;0.000;0.000;2023-04-08T07:57:32;101371.75;;;17.60
76007;BMP280;64699;0.000;0.000;2023-04-08T07:59:57;101368.47;;;17.62
76007;BMP280;64699;0.000;0.000;2023-04-08T08:02:22;101364.22;;;17.61
76007;BMP280;64699;0.000;0.000;2023-04-08T08:04:48;101363.50;;;17.60
76007;BMP280;64699;0.000;0.000;2023-04-08T08:07:13;101364.22;;;17.61
76007;BMP280;64699;0.000;0.000;2023-04-08T08:09:38;101365.50;;;17.60
76007;BMP280;64699;0.000;0.000;2023-04-08T08:12:03;101369.72;;;17.61
76007;BMP280;64699;0.000;0.000;2023-04-08T08:14:28;101368.25;;;17.60
76007;BMP280;64699;0.000;0.000;2023-04-08T08:16:54;101366.75;;;17.59
76007;BMP280;64699;0.000;0.000;2023-04-08T08:19:19;101368.25;;;17.60
76007;BMP280;64699;0.000;0.000;2023-04-08T08:21:45;101364.00;;;17.59
76007;BMP280;64699;0.000;0.000;2023-04-08T08:24:10;101370.25;;;17.59
76007;BMP280;64699;0.000;0.000;2023-04-08T08:26:36;101364.75;;;17.59
76007;BMP280;64699;0.000;0.000;2023-04-08T08:29:01;101372.22;;;17.59
76007;BMP280;64699;0.000;0.000;2023-04-08T08:31:26;101369.97;;;17.57
76007;BMP280;64699;0.000;0.000;2023-04-08T08:33:51;101360.47;;;17.58
76007;BMP280;64699;0.000;0.000;2023-04-08T08:36:17;101359.75;;;17.58
76007;BMP280;64699;0.000;0.000;2023-04-08T08:38:42;101352.50;;;17.49
76007;BMP280;64699;0.000;0.000;2023-04-08T08:41:07;101358.25;;;17.57
76007;BMP280;64699;0.000;0.000;2023-04-08T08:43:33;101360.97;;;17.57
76007;BMP280;64699;0.000;0.000;2023-04-08T08:45:58;101358.25;;;17.57
76007;BMP280;64699;0.000;0.000;2023-04-08T08:48:23;101354.03;;;17.56
76007;BMP280;64699;0.000;0.000;2023-04-08T08:50:49;101348.75;;;17.58
76007;BMP280;64699;0.000;0.000;2023-04-08T08:53:15;101351.97;;;17.56
76007;BMP280;64699;0.000;0.000;2023-04-08T08:55:40;101351.28;;;17.56
76007;BMP280;64699;0.000;0.000;2023-04-08T08:58:06;101356.78;;;17.56
76007;BMP280;64699;0.000;0.000;2023-04-08T09:00:41;101352.53;;;17.55
76007;BMP280;64699;0.000;0.000;2023-04-08T09:03:16;101356.78;;;17.56
76007;BMP280;64699;0.000;0.000;2023-04-08T09:11:10;101364.72;;;17.54
76007;BMP280;64699;0.000;0.000;2023-04-08T09:13:36;101360.75;;;17.55
76007;BMP280;64699;0.000;0.000;2023-04-08T09:16:02;101366.25;;;17.55
76007;BMP280;64699;0.000;0.000;2023-04-08T09:18:28;101371.00;;;17.54
76007;BMP280;64699;0.000;0.000;2023-04-08T09:20:53;101364.72;;;17.54
76007;BMP280;64699;0.000;0.000;2023-04-08T09:23:19;101369.50;;;17.53
76007;BMP280;64699;0.000;0.000;2023-04-08T09:25:44;101368.72;;;17.53
76007;BMP280;64699;0.000;0.000;2023-04-08T09:28:19;101376.97;;;17.53
76007;BMP280;64699;0.000;0.000;2023-04-08T09:30:45;101375.72;;;17.54
76007;BMP280;64699;0.000;0.000;2023-04-08T09:33:10;101377.47;;;17.51
76007;BMP280;64699;0.000;0.000;2023-04-08T09:35:36;101375.47;;;17.52
76007;BMP280;64699;0.000;0.000;2023-04-08T09:38:01;101368.72;;;17.53
76007;BMP280;64699;0.000;0.000;2023-04-08T09:40:26;101367.97;;;17.52
76007;BMP280;64699;0.000;0.000;2023-04-08T09:42:52;101371.25;;;17.51
76007;BMP280;64699;0.000;0.000;2023-04-08T09:45:18;101361.72;;;17.52
76007;BMP280;64699;0.000;0.000;2023-04-08T09:50:19;101363.72;;;17.51
76007;BMP280;64699;0.000;0.000;2023-04-08T09:52:47;101368.50;;;17.51
76007;BMP280;64699;0.000;0.000;2023-04-08T09:55:20;101353.25;;;17.50
76007;BMP280;64699;0.000;0.000;2023-04-08T09:58:28;101353.25;;;17.50
76007;BMP280;64699;0.000;0.000;2023-04-08T10:00:36;101354.75;;;17.51
76007;BMP280;64699;0.000;0.000;2023-04-08T10:05:32;101347.75;;;17.50
76007;BMP280;64699;0.000;0.000;2023-04-08T10:07:57;101347.75;;;17.50
76007;BMP280;64699;0.000;0.000;2023-04-08T10:10:23;101351.75;;;17.49
76007;BMP280;64699;0.000;0.000;2023-04-08T10:12:48;101354.50;;;17.49
76007;BMP280;64699;0.000;0.000;2023-04-08T10:15:21;101346.25;;;17.49
76007;BMP280;64699;0.000;0.000;2023-04-08T10:17:47;101340.75;;;17.49
76007;BMP280;64699;0.000;0.000;2023-04-08T10:22:56;101332.53;;;17.49
76007;BMP280;64699;0.000;0.000;2023-04-08T10:27:50;101342.00;;;17.48
76007;BMP280;64699;0.000;0.000;2023-04-08T10:32:53;101350.25;;;17.48
76007;BMP280;64699;0.000;0.000;2023-04-08T10:35:36;101340.47;;;17.47
76007;BMP280;64699;0.000;0.000;2023-04-08T10:38:01;101338.50;;;17.47
76007;BMP280;64699;0.000;0.000;2023-04-08T10:40:27;101329.50;;;17.47
76007;BMP280;64699;0.000;0.000;2023-04-08T10:42:55;101326.75;;;17.47
76007;BMP280;64699;0.000;0.000;2023-04-08T10:45:21;101317.75;;;17.46
76007;BMP280;64699;0.000;0.000;2023-04-08T10:47:47;101335.00;;;17.47
76007;BMP280;64699;0.000;0.000;2023-04-08T10:50:16;101324.00;;;17.47
76007;BMP280;64699;0.000;0.000;2023-04-08T10:52:47;101332.25;;;17.47
76007;BMP280;64699;0.000;0.000;2023-04-08T10:55:13;101328.03;;;17.46
76007;BMP280;64699;0.000;0.000;2023-04-08T10:57:38;101324.53;;;17.45
76007;BMP280;64699;0.000;0.000;2023-04-08T11:00:10;101318.28;;;17.45
76007;BMP280;64699;0.000;0.000;2023-04-08T11:02:38;101313.56;;;17.45
76007;BMP280;64699;0.000;0.000;2023-04-08T11:05:03;101318.28;;;17.45
76007;BMP280;64699;0.000;0.000;2023-04-08T11:07:29;101321.03;;;17.45
76007;BMP280;64699;0.000;0.000;2023-04-08T11:09:56;101318.28;;;17.45
76007;BMP280;64699;0.000;0.000;2023-04-08T11:12:21;101319.03;;;17.45
76007;BMP280;64699;0.000;0.000;2023-04-08T11:14:46;101323.03;;;17.44
76007;BMP280;64699;0.000;0.000;2023-04-08T11:17:16;101325.03;;;17.44
76007;BMP280;64699;0.000;0.000;2023-04-08T11:19:41;101329.25;;;17.45
76007;BMP280;64699;0.000;0.000;2023-04-08T11:22:07;101317.53;;;17.44
76007;BMP280;64699;0.000;0.000;2023-04-08T11:24:34;101322.28;;;17.44
76007;BMP280;64699;0.000;0.000;2023-04-08T11:27:01;101324.28;;;17.43
76007;BMP280;64699;0.000;0.000;2023-04-08T11:29:26;101318.03;;;17.43
76007;BMP280;64699;0.000;0.000;2023-04-08T11:31:53;101320.78;;;17.43
76007;BMP280;64699;0.000;0.000;2023-04-08T11:34:22;101314.50;;;17.42
76007;BMP280;64699;0.000;0.000;2023-04-08T11:36:48;101321.53;;;17.43
76007;BMP280;64699;0.000;0.000;2023-04-08T11:39:14;101312.53;;;17.43
76007;BMP280;64699;0.000;0.000;2023-04-08T11:41:40;101305.78;;;17.44
76007;BMP280;64699;0.000;0.000;2023-04-08T11:44:05;101297.28;;;17.42
76007;BMP280;64699;0.000;0.000;2023-04-08T11:46:33;101297.28;;;17.42
76007;BMP280;64699;0.000;0.000;2023-04-08T11:51:24;101297.28;;;17.42
76007;BMP280;64699;0.000;0.000;2023-04-08T11:53:50;101296.53;;;17.41
76007;BMP280;64699;0.000;0.000;2023-04-08T11:56:19;101302.78;;;17.42
76007;BMP280;64699;0.000;0.000;2023-04-08T11:58:45;101291.81;;;17.42
76007;BMP280;64699;0.000;0.000;2023-04-08T12:01:10;101297.28;;;17.42
76007;BMP280;64699;0.000;0.000;2023-04-08T12:03:36;101291.81;;;17.42
76007;BMP280;64699;0.000;0.000;2023-04-08T12:06:01;101288.28;;;17.41
76007;BMP280;64699;0.000;0.000;2023-04-08T12:08:26;101289.06;;;17.42
76007;BMP280;64699;0.000;0.000;2023-04-08T12:10:52;101287.56;;;17.41
76007;BMP280;64699;0.000;0.000;2023-04-08T12:13:17;101286.09;;;17.40
76007;BMP280;64699;0.000;0.000;2023-04-08T12:15:43;101287.56;;;17.41
76007;BMP280;64699;0.000;0.000;2023-04-08T12:18:08;101284.06;;;17.41
76007;BMP280;64699;0.000;0.000;2023-04-08T12:20:33;101279.34;;;17.41
76007;BMP280;64699;0.000;0.000;2023-04-08T12:22:58;101285.53;;;17.41
76007;BMP280;64699;0.000;0.000;2023-04-08T12:25:24;101278.56;;;17.41
76007;BMP280;64699;0.000;0.000;2023-04-08T12:27:49;101268.34;;;17.41
76007;BMP280;64699;0.000;0.000;2023-04-08T12:30:14;101279.34;;;17.41
76007;BMP280;64699;0.000;0.000;2023-04-08T12:32:40;101276.31;;;17.39
76007;BMP280;64699;0.000;0.000;2023-04-08T12:35:06;101275.09;;;17.40
76007;BMP280;64699;0.000;0.000;2023-04-08T12:37:31;101275.09;;;17.40
76007;BMP280;64699;0.000;0.000;2023-04-08T12:39:57;101271.56;;;17.40
76007;BMP280;64699;0.000;0.000;2023-04-08T12:42:22;101266.09;;;17.40
76007;BMP280;64699;0.000;0.000;2023-04-08T12:44:47;101268.06;;;17.39
76007;BMP280;64699;0.000;0.000;2023-04-08T12:47:13;101262.56;;;17.39
76007;BMP280;64699;0.000;0.000;2023-04-08T12:49:38;101263.81;;;17.38
76007;BMP280;64699;0.000;0.000;2023-04-08T12:52:03;101265.31;;;17.39
76007;BMP280;64699;0.000;0.000;2023-04-08T12:54:29;101258.31;;;17.38
76007;BMP280;64699;0.000;0.000;2023-04-08T12:56:55;101251.34;;;17.37
76007;BMP280;64699;0.000;0.000;2023-04-08T12:59:21;101255.56;;;17.38
76007;BMP280;64699;0.000;0.000;2023-04-08T13:01:46;101250.09;;;17.38
76007;BMP280;64699;0.000;0.000;2023-04-08T13:04:11;101254.06;;;17.37
76007;BMP280;64699;0.000;0.000;2023-04-08T13:06:37;101251.34;;;17.37
76007;BMP280;64699;0.000;0.000;2023-04-08T13:09:02;101247.88;;;17.37
76007;BMP280;64699;0.000;0.000;2023-04-08T13:11:27;101250.09;;;17.38
76007;BMP280;64699;0.000;0.000;2023-04-08T13:13:52;101252.84;;;17.38
76007;BMP280;64699;0.000;0.000;2023-04-08T13:16:18;101247.34;;;17.38
76007;BMP280;64699;0.000;0.000;2023-04-08T13:18:43;101245.13;;;17.37
76007;BMP280;64699;0.000;0.000;2023-04-08T13:21:09;101251.34;;;17.37
76007;BMP280;64699;0.000;0.000;2023-04-08T13:23:34;101243.09;;;17.37
76007;BMP280;64699;0.000;0.000;2023-04-08T13:25:59;101229.34;;;17.37
76007;BMP280;64699;0.000;0.000;2023-04-08T13:28:25;101236.13;;;17.36
76007;BMP280;64699;0.000;0.000;2023-04-08T13:30:50;101232.63;;;17.36
76007;BMP280;64699;0.000;0.000;2023-04-08T13:33:15;101227.63;;;17.34
76007;BMP280;64699;0.000;0.000;2023-04-08T13:35:41;101226.41;;;17.35
76007;BMP280;64699;0.000;0.000;2023-04-08T13:38:06;101222.16;;;17.34
76007;BMP280;64699;0.000;0.000;2023-04-08T13:40:32;101219.41;;;17.34
76007;BMP280;64699;0.000;0.000;2023-04-08T13:42:57;101223.66;;;17.35
76007;BMP280;64699;0.000;0.000;2023-04-08T13:45:23;101234.16;;;17.37
76007;BMP280;64699;0.000;0.000;2023-04-08T13:47:48;101224.13;;;17.34
76007;BMP280;64699;0.000;0.000;2023-04-08T13:50:13;101226.88;;;17.34
76007;BMP280;64699;0.000;0.000;2023-04-08T13:52:38;101231.63;;;17.33
76007;BMP280;64699;0.000;0.000;2023-04-08T13:55:04;101223.41;;;17.33
76007;BMP280;64699;0.000;0.000;2023-04-08T13:57:29;101221.91;;;17.32
76007;BMP280;64699;0.000;0.000;2023-04-08T13:59:55;101232.16;;;17.32
76007;BMP280;64699;0.000;0.000;2023-04-08T14:02:20;101232.16;;;17.32
76007;BMP280;64699;0.000;0.000;2023-04-08T14:04:45;101231.38;;;17.31
76007;BMP280;64699;0.000;0.000;2023-04-08T14:07:11;101227.41;;;17.32
76007;BMP280;64699;0.000;0.000;2023-04-08T14:09:36;101230.16;;;17.32
76007;BMP280;64699;0.000;0.000;2023-04-08T14:12:02;101229.41;;;17.32
76007;BMP280;64699;0.000;0.000;2023-04-08T14:14:27;101227.41;;;17.32
76007;BMP280;64699;0.000;0.000;2023-04-08T14:16:52;101225.88;;;17.31
76007;BMP280;64699;0.000;0.000;2023-04-08T14:19:17;101224.38;;;17.30
76007;BMP280;64699;0.000;0.000;2023-04-08T14:21:43;101221.16;;;17.32
76007;BMP280;64699;0.000;0.000;2023-04-08T14:24:08;101215.66;;;17.32
76007;BMP280;64699;0.000;0.000;2023-04-08T14:26:33;101223.13;;;17.31
76007;BMP280;64699;0.000;0.000;2023-04-08T14:29:03;101213.41;;;17.30
76007;BMP280;64699;0.000;0.000;2023-04-08T14:31:29;101218.91;;;17.30